createdAt,value
2017-12-21T00:02:25.513Z,63.93
2017-12-21T00:04:52.949Z,81.13
2017-12-21T00:07:21.160Z,57.80
2017-12-21T00:09:48.580Z,59.57
2017-12-21T00:12:16.770Z,54.37
2017-12-21T00:14:44.201Z,68.53
2017-12-21T00:17:12.406Z,68.30
2017-12-21T00:19:39.892Z,74.87
2017-12-21T00:22:07.321Z,61.43
2017-12-21T00:24:34.752Z,68.20
2017-12-21T00:27:03.355Z,71.57
2017-12-21T00:29:31.528Z,79.63
2017-12-21T00:31:58.962Z,76.37
2017-12-21T00:34:27.425Z,65.03
2017-12-21T00:36:54.846Z,83.73
2017-12-21T00:39:22.796Z,82.00
2017-12-21T00:41:50.934Z,73.20
2017-12-21T00:44:18.361Z,85.33
2017-12-21T00:46:46.381Z,74.10
2017-12-21T00:49:14.584Z,87.07
2017-12-21T00:51:42.778Z,89.17
2017-12-21T00:54:10.201Z,64.37
2017-12-21T00:56:37.641Z,72.67
2017-12-21T00:59:05.844Z,66.23
2017-12-21T01:01:33.299Z,90.80
2017-12-21T01:04:00.737Z,77.93
2017-12-21T01:06:28.171Z,84.37
2017-12-21T01:08:55.596Z,91.07
2017-12-21T01:11:23.051Z,57.00
2017-12-21T01:13:50.482Z,90.00
2017-12-21T01:16:17.933Z,64.50
2017-12-21T01:18:45.408Z,84.03
2017-12-21T01:21:12.844Z,69.63
2017-12-21T01:23:40.269Z,69.27
2017-12-21T01:26:08.987Z,91.60
2017-12-21T01:28:36.430Z,85.20
2017-12-21T01:31:04.621Z,66.10
2017-12-21T01:33:32.300Z,68.60
2017-12-21T01:35:59.699Z,68.70
2017-12-21T01:38:27.131Z,87.63
2017-12-21T01:40:54.561Z,97.47
2017-12-21T01:43:22.004Z,83.43
2017-12-21T01:45:49.440Z,89.20
2017-12-21T01:48:16.870Z,109.57
2017-12-21T01:50:44.300Z,99.57
2017-12-21T01:53:11.729Z,98.90
2017-12-21T01:55:39.151Z,81.53
2017-12-21T01:58:06.587Z,115.57
2017-12-21T02:00:34.776Z,112.83
2017-12-21T02:03:03.035Z,131.80
2017-12-21T02:08:29.593Z,75.40
2017-12-21T02:10:57.025Z,108.47
2017-12-21T02:13:24.992Z,98.93
2017-12-21T02:15:52.416Z,84.77
2017-12-21T02:18:20.601Z,92.40
2017-12-21T02:20:48.038Z,74.90
2017-12-21T02:23:16.263Z,107.23
2017-12-21T02:25:43.990Z,73.80
2017-12-21T02:28:11.406Z,109.07
2017-12-21T02:30:38.824Z,97.70
2017-12-21T02:33:06.262Z,90.80
2017-12-21T02:35:34.457Z,75.07
2017-12-21T02:38:01.883Z,99.13
2017-12-21T02:40:29.308Z,95.40
2017-12-21T02:42:57.028Z,103.63
2017-12-21T02:45:24.470Z,105.53
2017-12-21T02:47:52.647Z,84.37
2017-12-21T02:50:20.089Z,98.40
2017-12-21T02:52:47.520Z,90.20
2017-12-21T02:55:14.969Z,103.13
2017-12-21T02:57:42.422Z,103.30
2017-12-21T03:00:09.908Z,98.23
2017-12-21T03:02:37.433Z,95.73
2017-12-21T03:05:04.920Z,80.33
2017-12-21T03:07:32.352Z,90.30
2017-12-21T03:09:59.788Z,107.53
2017-12-21T03:12:27.220Z,88.00
2017-12-21T03:14:55.581Z,86.20
2017-12-21T03:17:23.059Z,72.70
2017-12-21T03:19:50.445Z,100.73
2017-12-21T03:22:17.872Z,81.50
2017-12-21T03:24:45.308Z,97.17
2017-12-21T03:27:13.496Z,94.63
2017-12-21T03:29:40.945Z,82.97
2017-12-21T03:32:09.132Z,82.57
2017-12-21T03:34:36.552Z,80.90
2017-12-21T03:37:04.008Z,83.80
2017-12-21T03:39:31.438Z,71.67
2017-12-21T03:41:58.890Z,90.33
2017-12-21T03:47:24.261Z,93.00
2017-12-21T03:49:51.688Z,94.57
2017-12-21T03:52:19.141Z,97.70
2017-12-21T03:54:46.580Z,91.10
2017-12-21T03:57:14.012Z,84.93
2017-12-21T03:59:41.452Z,80.43
2017-12-21T04:02:09.656Z,76.20
2017-12-21T04:04:37.506Z,61.40
2017-12-21T04:07:06.304Z,82.33
2017-12-21T04:09:33.741Z,83.63
2017-12-21T04:12:02.228Z,79.40
2017-12-21T04:14:29.628Z,77.10
2017-12-21T04:16:57.065Z,78.90
2017-12-21T04:19:24.929Z,70.00
2017-12-21T04:21:52.873Z,80.40
2017-12-21T04:24:21.080Z,63.33
2017-12-21T04:26:48.510Z,70.43
2017-12-21T04:29:16.712Z,77.80
2017-12-21T04:31:50.724Z,84.40
2017-12-21T04:34:18.164Z,74.90
2017-12-21T04:36:46.140Z,79.53
2017-12-21T04:39:13.973Z,79.00
2017-12-21T04:42:00.832Z,92.43
2017-12-21T04:44:28.293Z,77.77
2017-12-21T04:46:55.731Z,84.37
2017-12-21T04:49:23.156Z,68.87
2017-12-21T04:51:50.588Z,79.80
2017-12-21T04:54:20.615Z,63.13
2017-12-21T04:56:48.044Z,77.47
2017-12-21T04:59:15.481Z,76.67
2017-12-21T05:01:42.911Z,76.10
2017-12-21T05:04:11.117Z,76.63
2017-12-21T05:06:38.540Z,79.50
2017-12-21T05:09:07.137Z,70.77
2017-12-21T05:11:35.313Z,68.87
2017-12-21T05:14:02.757Z,77.60
2017-12-21T05:16:30.949Z,71.20
2017-12-21T05:18:58.913Z,69.43
2017-12-21T05:21:26.744Z,67.50
2017-12-21T05:23:54.665Z,78.83
2017-12-21T05:26:22.877Z,72.57
2017-12-21T05:28:52.260Z,71.70
2017-12-21T05:31:19.659Z,80.70
2017-12-21T05:33:48.400Z,75.57
2017-12-21T05:36:15.829Z,74.07
2017-12-21T05:38:43.261Z,79.57
2017-12-21T05:41:11.864Z,80.43
2017-12-21T05:43:39.315Z,84.37
2017-12-21T05:46:06.739Z,88.73
2017-12-21T05:48:34.168Z,87.40
2017-12-21T05:51:01.595Z,73.17
2017-12-21T05:53:29.050Z,92.90
2017-12-21T05:55:59.327Z,95.77
2017-12-21T05:58:26.762Z,105.20
2017-12-21T06:00:54.220Z,89.47
2017-12-21T06:03:28.240Z,92.63
2017-12-21T06:05:56.112Z,93.77
2017-12-21T06:08:23.548Z,95.67
2017-12-21T06:10:51.401Z,99.63
2017-12-21T06:13:19.201Z,103.57
2017-12-21T06:15:46.631Z,88.77
2017-12-21T06:18:14.056Z,94.30
2017-12-21T06:20:42.272Z,95.60
2017-12-21T06:23:09.703Z,96.07
2017-12-21T06:25:37.135Z,100.23
2017-12-21T06:28:05.865Z,95.93
2017-12-21T06:30:34.758Z,95.10
2017-12-21T06:33:02.882Z,86.43
2017-12-21T06:35:31.093Z,85.53
2017-12-21T06:37:58.515Z,93.30
2017-12-21T06:40:26.724Z,91.30
2017-12-21T06:42:54.665Z,97.23
2017-12-21T06:45:22.871Z,111.73
2017-12-21T06:47:50.296Z,100.63
2017-12-21T06:50:32.621Z,103.83
2017-12-21T06:53:00.074Z,106.03
2017-12-21T06:55:27.512Z,98.30
2017-12-21T06:57:56.840Z,104.23
2017-12-21T07:00:24.288Z,102.90
2017-12-21T07:02:52.637Z,103.80
2017-12-21T07:05:20.072Z,101.90
2017-12-21T07:07:47.521Z,107.27
2017-12-21T07:10:14.960Z,106.30
2017-12-21T07:12:42.417Z,94.57
2017-12-21T07:15:09.839Z,92.97
2017-12-21T07:17:42.285Z,92.47
2017-12-21T07:20:09.712Z,106.73
2017-12-21T07:22:37.157Z,101.63
2017-12-21T07:25:05.253Z,99.73
2017-12-21T07:27:32.776Z,100.10
2017-12-21T07:30:00.216Z,91.53
2017-12-21T07:32:28.428Z,94.93
2017-12-21T07:34:56.869Z,89.47
2017-12-21T07:37:25.888Z,89.47
2017-12-21T07:39:53.768Z,84.27
2017-12-21T07:42:23.109Z,78.47
2017-12-21T07:44:50.541Z,80.43
2017-12-21T07:47:17.975Z,82.57
2017-12-21T07:49:45.413Z,76.53
2017-12-21T07:52:12.848Z,64.03
2017-12-21T07:54:41.821Z,77.87
2017-12-21T07:57:10.087Z,67.50
2017-12-21T07:59:37.524Z,57.30
2017-12-21T08:02:04.952Z,58.47
2017-12-21T08:04:32.376Z,59.33
2017-12-21T08:06:59.816Z,56.37
2017-12-21T08:09:27.242Z,56.47
2017-12-21T08:11:54.661Z,52.97
2017-12-21T08:14:23.774Z,52.57
2017-12-21T08:16:52.105Z,52.43
2017-12-21T08:19:19.533Z,44.83
2017-12-21T08:21:46.965Z,49.90
2017-12-21T08:24:14.397Z,50.97
2017-12-21T08:26:42.596Z,47.20
2017-12-21T08:29:10.796Z,45.43
2017-12-21T08:31:38.232Z,47.57
2017-12-21T08:34:05.661Z,48.23
2017-12-21T08:36:33.088Z,49.03
2017-12-21T08:39:00.545Z,46.57
2017-12-21T08:41:28.358Z,51.30
2017-12-21T08:43:56.561Z,48.10
2017-12-21T08:46:24.756Z,48.23
2017-12-21T08:48:52.640Z,45.87
2017-12-21T08:51:20.073Z,40.43
2017-12-21T08:53:47.507Z,43.13
2017-12-21T08:56:14.929Z,42.70
2017-12-21T08:58:42.368Z,45.83
2017-12-21T09:01:11.781Z,45.37
2017-12-21T09:03:39.220Z,43.63
2017-12-21T09:06:06.661Z,37.10
2017-12-21T09:08:34.105Z,47.23
2017-12-21T09:11:01.536Z,40.50
2017-12-21T09:13:31.039Z,36.50
2017-12-21T09:16:02.008Z,33.70
2017-12-21T09:18:29.444Z,39.07
2017-12-21T09:20:56.885Z,36.30
2017-12-21T09:23:25.090Z,35.07
2017-12-21T09:25:53.196Z,37.73
2017-12-21T09:28:20.628Z,34.77
2017-12-21T09:30:48.443Z,36.93
2017-12-21T09:33:15.990Z,33.27
2017-12-21T09:35:43.415Z,33.87
2017-12-21T09:38:10.849Z,30.87
2017-12-21T09:40:38.283Z,30.50
2017-12-21T09:43:06.477Z,32.97
2017-12-21T09:45:34.313Z,26.90
2017-12-21T09:48:01.732Z,29.47
2017-12-21T09:50:29.700Z,22.53
2017-12-21T09:52:57.134Z,23.67
2017-12-21T09:55:25.736Z,22.13
2017-12-21T09:57:53.177Z,25.03
2017-12-21T10:00:20.611Z,24.27
2017-12-21T10:02:48.043Z,22.80
2017-12-21T10:05:15.483Z,18.07
2017-12-21T10:07:43.124Z,21.77
2017-12-21T10:10:10.568Z,21.97
2017-12-21T10:12:38.239Z,22.20
2017-12-21T10:15:05.688Z,16.97
2017-12-21T10:17:33.136Z,16.90
2017-12-21T10:20:01.114Z,16.70
2017-12-21T10:25:03.801Z,17.60
2017-12-21T10:27:31.253Z,20.47
2017-12-21T10:29:58.720Z,20.13
2017-12-21T10:32:26.144Z,19.47
2017-12-21T10:34:55.025Z,19.30
2017-12-21T10:37:22.459Z,23.13
2017-12-21T10:39:50.439Z,21.83
2017-12-21T10:42:18.776Z,21.83
2017-12-21T10:44:46.208Z,18.57
2017-12-21T10:47:14.328Z,21.03
2017-12-21T10:49:42.045Z,20.20
2017-12-21T10:52:09.524Z,20.50
2017-12-21T10:54:38.815Z,22.83
2017-12-21T10:57:13.927Z,19.03
2017-12-21T10:59:42.336Z,23.00
2017-12-21T11:02:13.339Z,22.03
2017-12-21T11:04:41.517Z,23.37
2017-12-21T11:07:09.726Z,20.63
2017-12-21T11:09:37.708Z,21.77
2017-12-21T11:12:06.203Z,20.67
2017-12-21T11:14:33.633Z,20.53
2017-12-21T11:17:01.061Z,23.47
2017-12-21T11:19:29.778Z,20.60
2017-12-21T11:21:57.204Z,17.40
2017-12-21T11:24:25.804Z,17.60
2017-12-21T11:26:53.233Z,22.03
2017-12-21T11:29:20.977Z,16.93
2017-12-21T11:31:48.960Z,20.77
2017-12-21T11:34:16.392Z,18.43
2017-12-21T11:36:44.421Z,20.93
2017-12-21T11:39:12.293Z,20.23
2017-12-21T11:41:40.124Z,19.77
2017-12-21T11:44:10.132Z,18.20
2017-12-21T11:46:37.556Z,20.03
2017-12-21T11:49:04.988Z,18.67
2017-12-21T11:51:32.408Z,21.87
2017-12-21T11:54:01.135Z,19.47
2017-12-21T11:56:28.564Z,15.53
2017-12-21T11:58:56.752Z,20.87
2017-12-21T12:01:25.810Z,15.13
2017-12-21T12:03:53.321Z,14.70
2017-12-21T12:06:21.139Z,16.13
2017-12-21T12:08:48.828Z,14.83
2017-12-21T12:11:17.040Z,17.53
2017-12-21T12:13:44.949Z,16.87
2017-12-21T12:16:12.545Z,19.00
2017-12-21T12:18:42.552Z,15.40
2017-12-21T12:21:09.996Z,15.73
2017-12-21T12:23:38.200Z,18.27
2017-12-21T12:26:05.635Z,19.23
2017-12-21T12:28:34.508Z,14.57
2017-12-21T12:31:02.728Z,16.20
2017-12-21T12:33:30.163Z,19.00
2017-12-21T12:36:00.053Z,16.27
2017-12-21T12:38:27.491Z,18.07
2017-12-21T12:40:54.933Z,15.47
2017-12-21T12:43:26.428Z,16.57
2017-12-21T12:45:53.848Z,16.37
2017-12-21T12:48:21.488Z,14.07
2017-12-21T12:50:48.923Z,20.50
2017-12-21T12:53:16.922Z,18.30
2017-12-21T12:55:44.348Z,16.87
2017-12-21T12:58:12.373Z,15.87
2017-12-21T13:00:39.804Z,14.17
2017-12-21T13:03:08.220Z,15.63
2017-12-21T13:05:35.662Z,17.30
2017-12-21T13:08:04.324Z,14.03
2017-12-21T13:10:31.799Z,18.57
2017-12-21T13:12:59.208Z,18.30
2017-12-21T13:15:26.637Z,17.97
2017-12-21T13:17:54.076Z,17.23
2017-12-21T13:20:21.505Z,15.47
2017-12-21T13:22:48.928Z,15.13
2017-12-21T13:25:19.800Z,19.07
2017-12-21T13:27:47.256Z,16.33
2017-12-21T13:30:15.404Z,18.53
2017-12-21T13:32:42.824Z,22.30
2017-12-21T13:35:10.259Z,22.50
2017-12-21T13:37:38.116Z,24.10
2017-12-21T13:40:05.968Z,23.47
2017-12-21T13:42:33.404Z,22.67
2017-12-21T13:45:03.256Z,28.33
2017-12-21T13:47:30.700Z,25.33
2017-12-21T13:49:58.153Z,28.80
2017-12-21T13:52:25.654Z,29.00
2017-12-21T13:54:56.012Z,30.93
2017-12-21T13:57:23.620Z,28.23
2017-12-21T13:59:51.343Z,28.57
2017-12-21T14:02:19.553Z,34.50
2017-12-21T14:04:47.196Z,41.87
2017-12-21T14:07:17.877Z,36.37
2017-12-21T14:09:48.729Z,38.00
2017-12-21T14:12:16.934Z,39.00
2017-12-21T14:14:44.365Z,33.67
2017-12-21T14:17:12.663Z,34.63
2017-12-21T14:19:40.132Z,35.80
2017-12-21T14:22:07.597Z,32.27
2017-12-21T14:24:35.850Z,32.57
2017-12-21T14:27:03.281Z,32.97
2017-12-21T14:29:31.474Z,34.90
2017-12-21T14:31:58.905Z,35.70
2017-12-21T14:34:26.736Z,30.47
2017-12-21T14:36:54.157Z,33.70
2017-12-21T14:39:21.993Z,35.90
2017-12-21T14:41:49.612Z,37.23
2017-12-21T14:44:17.068Z,33.80
2017-12-21T14:46:44.495Z,39.80
2017-12-21T14:49:12.373Z,43.40
2017-12-21T14:51:39.804Z,44.13
2017-12-21T14:54:08.000Z,42.67
2017-12-21T14:56:35.452Z,45.33
2017-12-21T14:59:02.898Z,38.97
2017-12-21T15:01:31.091Z,37.10
2017-12-21T15:03:58.735Z,38.20
2017-12-21T15:06:26.929Z,39.27
2017-12-21T15:08:54.365Z,42.03
2017-12-21T15:11:22.616Z,41.97
2017-12-21T15:13:50.044Z,36.90
2017-12-21T15:16:17.460Z,35.10
2017-12-21T15:18:47.330Z,36.27
2017-12-21T15:21:14.765Z,36.70
2017-12-21T15:23:42.209Z,34.43
2017-12-21T15:26:09.628Z,35.10
2017-12-21T15:28:38.105Z,32.83
2017-12-21T15:31:05.508Z,38.47
2017-12-21T15:33:32.940Z,39.47
2017-12-21T15:36:00.361Z,41.30
2017-12-21T15:38:27.780Z,40.47
2017-12-21T15:40:55.213Z,34.03
2017-12-21T15:43:23.059Z,39.00
2017-12-21T15:45:51.257Z,43.57
2017-12-21T15:48:19.228Z,34.63
2017-12-21T15:50:46.677Z,35.87
2017-12-21T15:53:14.104Z,38.40
2017-12-21T15:55:42.128Z,38.90
2017-12-21T15:58:09.956Z,34.57
2017-12-21T16:00:38.169Z,39.70
2017-12-21T16:03:06.168Z,44.00
2017-12-21T16:05:33.605Z,37.97
2017-12-21T16:08:01.294Z,41.77
2017-12-21T16:10:28.738Z,36.33
2017-12-21T16:12:56.976Z,40.90
2017-12-21T16:15:24.607Z,36.67
2017-12-21T16:17:52.145Z,41.20
2017-12-21T16:20:19.588Z,31.23
2017-12-21T16:22:47.016Z,35.33
2017-12-21T16:25:14.852Z,32.47
2017-12-21T16:27:43.484Z,36.37
2017-12-21T16:30:11.369Z,35.47
2017-12-21T16:32:38.795Z,33.13
2017-12-21T16:35:06.224Z,38.23
2017-12-21T16:37:34.416Z,37.63
2017-12-21T16:40:01.872Z,37.23
2017-12-21T16:42:30.063Z,38.27
2017-12-21T16:44:58.437Z,42.77
2017-12-21T16:47:28.711Z,49.63
2017-12-21T16:49:56.404Z,48.40
2017-12-21T16:52:25.012Z,47.77
2017-12-21T16:54:52.428Z,44.27
2017-12-21T16:57:20.832Z,53.33
2017-12-21T16:59:48.262Z,52.63
2017-12-21T17:02:16.460Z,50.27
2017-12-21T17:04:43.881Z,49.53
2017-12-21T17:07:11.316Z,51.07
2017-12-21T17:09:38.811Z,52.03
2017-12-21T17:12:07.025Z,57.23
2017-12-21T17:14:34.448Z,52.90
2017-12-21T17:17:01.907Z,56.23
2017-12-21T17:19:29.719Z,56.90
2017-12-21T17:21:57.140Z,62.60
2017-12-21T17:24:24.598Z,57.57
2017-12-21T17:26:52.043Z,55.80
2017-12-21T17:29:19.416Z,59.73
2017-12-21T17:31:46.836Z,60.97
2017-12-21T17:34:15.024Z,67.27
2017-12-21T17:36:43.236Z,57.40
2017-12-21T17:39:11.068Z,61.60
2017-12-21T17:41:38.474Z,62.83
2017-12-21T17:44:05.896Z,69.30
2017-12-21T17:46:33.316Z,60.47
2017-12-21T17:49:00.747Z,60.13
2017-12-21T17:51:28.168Z,62.27
2017-12-21T17:53:55.592Z,65.17
2017-12-21T17:56:23.776Z,64.80
2017-12-21T17:58:51.973Z,64.73
2017-12-21T18:01:19.392Z,64.63
2017-12-21T18:03:47.669Z,62.63
2017-12-21T18:06:17.657Z,76.10
2017-12-21T18:08:45.084Z,56.87
2017-12-21T18:11:13.045Z,64.33
2017-12-21T18:13:40.468Z,60.37
2017-12-21T18:16:07.888Z,65.87
2017-12-21T18:18:35.327Z,60.63
2017-12-21T18:21:02.744Z,64.50
2017-12-21T18:23:30.945Z,66.10
2017-12-21T18:25:58.371Z,64.30
2017-12-21T18:28:25.796Z,73.00
2017-12-21T18:30:53.215Z,71.60
2017-12-21T18:33:20.657Z,69.70
2017-12-21T18:35:48.839Z,75.07
2017-12-21T18:38:16.988Z,72.33
2017-12-21T18:40:47.636Z,79.67
2017-12-21T18:43:16.276Z,69.67
2017-12-21T18:45:43.964Z,69.77
2017-12-21T18:48:11.968Z,72.70
2017-12-21T18:50:39.956Z,70.83
2017-12-21T18:53:07.376Z,71.30
2017-12-21T18:55:35.993Z,82.40
2017-12-21T18:58:03.412Z,74.07
2017-12-21T19:00:32.309Z,70.13
2017-12-21T19:03:01.320Z,70.67
2017-12-21T19:05:28.755Z,77.37
2017-12-21T19:07:56.944Z,72.33
2017-12-21T19:10:24.923Z,67.50
2017-12-21T19:12:52.340Z,76.13
2017-12-21T19:15:19.781Z,82.27
2017-12-21T19:17:47.852Z,74.37
2017-12-21T19:20:15.285Z,72.53
2017-12-21T19:22:43.691Z,84.70
2017-12-21T19:25:11.809Z,69.03
2017-12-21T19:27:39.757Z,81.57
2017-12-21T19:30:07.952Z,76.47
2017-12-21T19:32:35.372Z,79.40
2017-12-21T19:35:02.796Z,73.67
2017-12-21T19:37:30.664Z,71.03
2017-12-21T19:39:58.643Z,75.27
2017-12-21T19:42:26.328Z,72.63
2017-12-21T19:44:53.723Z,69.43
2017-12-21T19:47:21.162Z,77.47
2017-12-21T19:49:49.347Z,67.93
2017-12-21T19:52:16.772Z,71.27
2017-12-21T19:54:44.196Z,65.20
2017-12-21T19:57:11.627Z,78.73
2017-12-21T19:59:39.053Z,69.07
2017-12-21T20:02:06.547Z,71.10
2017-12-21T20:04:34.245Z,71.43
2017-12-21T20:07:01.653Z,74.10
2017-12-21T20:09:29.080Z,74.50
2017-12-21T20:11:56.508Z,76.77
2017-12-21T20:14:23.932Z,67.63
2017-12-21T20:16:51.362Z,73.80
2017-12-21T20:19:19.964Z,68.97
2017-12-21T20:21:47.396Z,66.37
2017-12-21T20:24:15.373Z,61.73
2017-12-21T20:26:42.811Z,65.00
2017-12-21T20:29:10.223Z,65.23
2017-12-21T20:31:38.420Z,71.13
2017-12-21T20:34:05.849Z,65.93
2017-12-21T20:36:36.461Z,62.70
2017-12-21T20:39:03.884Z,63.53
2017-12-21T20:41:31.537Z,69.53
2017-12-21T20:43:58.964Z,67.63
2017-12-21T20:46:26.384Z,69.63
2017-12-21T20:48:54.592Z,71.50
2017-12-21T20:51:22.316Z,58.60
2017-12-21T20:53:49.721Z,65.30
2017-12-21T20:56:17.151Z,64.07
2017-12-21T20:58:44.924Z,62.93
2017-12-21T21:01:13.090Z,69.67
2017-12-21T21:03:41.198Z,68.90
2017-12-21T21:06:08.611Z,67.90
2017-12-21T21:08:36.049Z,70.37
2017-12-21T21:11:04.796Z,66.87
2017-12-21T21:13:32.224Z,59.53
2017-12-21T21:16:00.412Z,57.83
2017-12-21T21:18:27.840Z,61.20
2017-12-21T21:20:55.264Z,60.60
2017-12-21T21:23:22.732Z,61.03
2017-12-21T21:25:50.652Z,59.00
2017-12-21T21:28:18.087Z,58.37
2017-12-21T21:30:45.507Z,59.37
2017-12-21T21:33:12.941Z,57.13
2017-12-21T21:35:40.373Z,52.90
2017-12-21T21:38:08.219Z,61.17
2017-12-21T21:40:35.639Z,60.23
2017-12-21T21:43:03.081Z,61.13
2017-12-21T21:45:32.941Z,58.10
2017-12-21T21:48:01.126Z,62.97
2017-12-21T21:50:28.574Z,64.50
2017-12-21T21:52:55.984Z,58.23
2017-12-21T21:55:23.733Z,68.87
2017-12-21T21:57:51.159Z,60.83
2017-12-21T22:00:18.597Z,59.87
2017-12-21T22:02:47.301Z,59.40
2017-12-21T22:05:14.735Z,61.50
2017-12-21T22:07:42.933Z,61.83
2017-12-21T22:10:10.369Z,67.23
2017-12-21T22:12:37.792Z,56.00
2017-12-21T22:15:05.605Z,61.97
2017-12-21T22:17:33.793Z,58.70
2017-12-21T22:20:01.733Z,63.20
2017-12-21T22:22:29.302Z,57.10
2017-12-21T22:24:58.730Z,58.73
2017-12-21T22:27:26.152Z,55.83
2017-12-21T22:29:53.576Z,63.27
2017-12-21T22:32:21.412Z,60.07
2017-12-21T22:34:48.852Z,57.77
2017-12-21T22:37:16.283Z,59.73
2017-12-21T22:39:44.909Z,69.03
2017-12-21T22:42:12.331Z,66.93
2017-12-21T22:44:40.850Z,64.07
2017-12-21T22:47:08.296Z,72.87
2017-12-21T22:49:35.716Z,62.63
2017-12-21T22:52:04.317Z,71.17
2017-12-21T22:54:31.715Z,68.33
2017-12-21T22:56:59.143Z,59.17
2017-12-21T22:59:26.567Z,64.87
2017-12-21T23:01:54.774Z,60.60
2017-12-21T23:04:22.504Z,60.80
2017-12-21T23:06:50.493Z,58.97
2017-12-21T23:09:18.689Z,58.47
2017-12-21T23:11:46.516Z,55.27
2017-12-21T23:14:13.949Z,53.37
2017-12-21T23:16:41.429Z,57.17
2017-12-21T23:19:09.357Z,54.50
2017-12-21T23:21:36.784Z,57.00
2017-12-21T23:24:04.407Z,63.70
2017-12-21T23:26:31.859Z,58.73
2017-12-21T23:28:59.700Z,59.83
2017-12-21T23:31:27.392Z,65.47
2017-12-21T23:33:55.296Z,69.57
2017-12-21T23:36:23.262Z,69.60
2017-12-21T23:38:51.887Z,68.60
2017-12-21T23:41:19.327Z,74.37
2017-12-21T23:46:54.253Z,58.77
2017-12-21T23:49:22.463Z,75.37
2017-12-21T23:51:49.894Z,68.73
2017-12-21T23:54:17.320Z,73.03
2017-12-21T23:56:44.752Z,63.97
2017-12-21T23:59:12.185Z,73.50
